Terminal Aerodrome Forecast
Issued by NWS Midland/Odessa, TX

Home | Current Version | Previous Version | Text Only | Print | Product List | Glossary On
Versions: 1 2 3 4 5 6 7 8 9 10 11 12 13 14 15 16 17 18 19
000
FTUS44 KMAF 312300
TAFMAF
TAF
KMAF 312325Z 0100/0124 18008KT 6SM BR OVC006
     FM011600 36014KT P6SM OVC010
     FM011900 02015KT P6SM BKN020
     FM012200 03012KT P6SM BKN040=

USA.gov is the U.S. government's official web portal to all federal, state and local government web resources and services.